sensor_id;sensor_type;location;lat;lon;timestamp;P1;durP1;ratioP1;P2;durP2;ratioP2
77160;SDS011;66135;0.000;0.000;2023-08-17T03:20:33;1.35;;;1.35;;
77160;SDS011;66135;0.000;0.000;2023-08-17T03:22:58;1.83;;;1.73;;
77160;SDS011;66135;0.000;0.000;2023-08-17T03:25:24;1.00;;;0.90;;
77160;SDS011;66135;0.000;0.000;2023-08-17T03:27:49;1.10;;;1.10;;
77160;SDS011;66135;0.000;0.000;2023-08-17T03:30:15;1.35;;;1.25;;
77160;SDS011;66135;0.000;0.000;2023-08-17T03:32:40;1.33;;;1.23;;
77160;SDS011;66135;0.000;0.000;2023-08-17T03:35:06;1.55;;;1.45;;
77160;SDS011;66135;0.000;0.000;2023-08-17T03:37:31;0.95;;;0.95;;
77160;SDS011;66135;0.000;0.000;2023-08-17T03:39:57;1.25;;;1.25;;
77160;SDS011;66135;0.000;0.000;2023-08-17T03:42:22;1.67;;;1.58;;
77160;SDS011;66135;0.000;0.000;2023-08-17T03:44:47;1.40;;;1.27;;
77160;SDS011;66135;0.000;0.000;2023-08-17T03:47:13;1.27;;;1.02;;
77160;SDS011;66135;0.000;0.000;2023-08-17T03:49:39;1.50;;;1.40;;
77160;SDS011;66135;0.000;0.000;2023-08-17T03:52:05;0.93;;;0.93;;
77160;SDS011;66135;0.000;0.000;2023-08-17T03:54:31;1.05;;;0.88;;
77160;SDS011;66135;0.000;0.000;2023-08-17T03:56:56;0.98;;;0.98;;
77160;SDS011;66135;0.000;0.000;2023-08-17T03:59:21;1.10;;;0.85;;
77160;SDS011;66135;0.000;0.000;2023-08-17T04:01:47;1.08;;;0.98;;
77160;SDS011;66135;0.000;0.000;2023-08-17T04:04:12;0.90;;;0.90;;
77160;SDS011;66135;0.000;0.000;2023-08-17T04:06:38;1.27;;;1.17;;
77160;SDS011;66135;0.000;0.000;2023-08-17T04:09:04;1.20;;;1.20;;
77160;SDS011;66135;0.000;0.000;2023-08-17T04:11:30;1.15;;;1.13;;
77160;SDS011;66135;0.000;0.000;2023-08-17T04:13:55;1.10;;;1.10;;
77160;SDS011;66135;0.000;0.000;2023-08-17T04:16:20;1.45;;;1.35;;
77160;SDS011;66135;0.000;0.000;2023-08-17T04:18:46;0.85;;;0.85;;
77160;SDS011;66135;0.000;0.000;2023-08-17T04:21:11;1.27;;;1.20;;
77160;SDS011;66135;0.000;0.000;2023-08-17T04:23:37;1.17;;;1.17;;
77160;SDS011;66135;0.000;0.000;2023-08-17T04:26:02;1.48;;;1.38;;
77160;SDS011;66135;0.000;0.000;2023-08-17T04:28:28;1.48;;;1.40;;
77160;SDS011;66135;0.000;0.000;2023-08-17T04:30:53;0.70;;;0.70;;
77160;SDS011;66135;0.000;0.000;2023-08-17T04:33:18;1.10;;;0.70;;
77160;SDS011;66135;0.000;0.000;2023-08-17T04:35:46;1.15;;;1.05;;
77160;SDS011;66135;0.000;0.000;2023-08-17T04:38:13;1.65;;;1.52;;
77160;SDS011;66135;0.000;0.000;2023-08-17T04:40:38;1.40;;;1.30;;
77160;SDS011;66135;0.000;0.000;2023-08-17T04:43:03;1.92;;;1.75;;
77160;SDS011;66135;0.000;0.000;2023-08-17T04:45:29;1.48;;;1.38;;
77160;SDS011;66135;0.000;0.000;2023-08-17T04:47:54;1.48;;;1.30;;
77160;SDS011;66135;0.000;0.000;2023-08-17T04:50:19;1.05;;;0.98;;
77160;SDS011;66135;0.000;0.000;2023-08-17T04:52:45;2.15;;;1.85;;
77160;SDS011;66135;0.000;0.000;2023-08-17T04:55:13;1.35;;;1.17;;
77160;SDS011;66135;0.000;0.000;2023-08-17T04:57:39;1.63;;;1.52;;
77160;SDS011;66135;0.000;0.000;2023-08-17T05:00:05;2.33;;;1.75;;
77160;SDS011;66135;0.000;0.000;2023-08-17T05:02:34;2.90;;;1.35;;
77160;SDS011;66135;0.000;0.000;2023-08-17T05:05:00;1.77;;;1.52;;
77160;SDS011;66135;0.000;0.000;2023-08-17T05:07:27;1.35;;;1.20;;
77160;SDS011;66135;0.000;0.000;2023-08-17T05:09:52;0.93;;;0.43;;
77160;SDS011;66135;0.000;0.000;2023-08-17T05:12:18;1.95;;;1.75;;
77160;SDS011;66135;0.000;0.000;2023-08-17T05:14:43;2.38;;;2.10;;
77160;SDS011;66135;0.000;0.000;2023-08-17T05:17:08;2.00;;;1.55;;
77160;SDS011;66135;0.000;0.000;2023-08-17T05:19:34;1.58;;;1.38;;
77160;SDS011;66135;0.000;0.000;2023-08-17T05:21:59;1.63;;;1.52;;
77160;SDS011;66135;0.000;0.000;2023-08-17T05:24:25;1.80;;;1.67;;
77160;SDS011;66135;0.000;0.000;2023-08-17T05:26:50;1.67;;;1.58;;
77160;SDS011;66135;0.000;0.000;2023-08-17T05:29:15;2.20;;;1.63;;
77160;SDS011;66135;0.000;0.000;2023-08-17T05:31:41;2.45;;;1.58;;
77160;SDS011;66135;0.000;0.000;2023-08-17T05:34:06;1.60;;;0.65;;
77160;SDS011;66135;0.000;0.000;2023-08-17T05:36:31;1.83;;;1.35;;
77160;SDS011;66135;0.000;0.000;2023-08-17T05:38:57;1.80;;;1.35;;
77160;SDS011;66135;0.000;0.000;2023-08-17T05:41:22;1.63;;;1.50;;
77160;SDS011;66135;0.000;0.000;2023-08-17T05:43:48;1.67;;;1.58;;
77160;SDS011;66135;0.000;0.000;2023-08-17T05:46:13;1.95;;;1.73;;
77160;SDS011;66135;0.000;0.000;2023-08-17T05:48:39;2.85;;;2.00;;
77160;SDS011;66135;0.000;0.000;2023-08-17T05:51:06;1.70;;;1.35;;
77160;SDS011;66135;0.000;0.000;2023-08-17T05:53:31;2.25;;;2.15;;
77160;SDS011;66135;0.000;0.000;2023-08-17T05:55:57;3.55;;;1.75;;
77160;SDS011;66135;0.000;0.000;2023-08-17T05:58:22;3.63;;;1.50;;
77160;SDS011;66135;0.000;0.000;2023-08-17T06:00:48;1.92;;;1.60;;
77160;SDS011;66135;0.000;0.000;2023-08-17T06:03:14;3.50;;;2.28;;
77160;SDS011;66135;0.000;0.000;2023-08-17T06:05:39;2.97;;;1.85;;
77160;SDS011;66135;0.000;0.000;2023-08-17T06:08:05;2.60;;;1.75;;
77160;SDS011;66135;0.000;0.000;2023-08-17T06:10:31;2.08;;;1.88;;
77160;SDS011;66135;0.000;0.000;2023-08-17T06:12:56;2.65;;;1.95;;
77160;SDS011;66135;0.000;0.000;2023-08-17T06:15:22;2.30;;;0.85;;
77160;SDS011;66135;0.000;0.000;2023-08-17T06:17:48;3.20;;;1.80;;
77160;SDS011;66135;0.000;0.000;2023-08-17T06:20:17;2.45;;;1.95;;
77160;SDS011;66135;0.000;0.000;2023-08-17T06:22:43;1.80;;;1.70;;
77160;SDS011;66135;0.000;0.000;2023-08-17T06:25:08;2.17;;;1.98;;
77160;SDS011;66135;0.000;0.000;2023-08-17T06:27:34;5.55;;;2.42;;
77160;SDS011;66135;0.000;0.000;2023-08-17T06:30:00;2.63;;;2.10;;
77160;SDS011;66135;0.000;0.000;2023-08-17T06:32:28;2.35;;;1.70;;
77160;SDS011;66135;0.000;0.000;2023-08-17T06:34:53;3.05;;;2.65;;
77160;SDS011;66135;0.000;0.000;2023-08-17T06:37:19;1.88;;;0.80;;
77160;SDS011;66135;0.000;0.000;2023-08-17T06:39:44;2.13;;;1.92;;
77160;SDS011;66135;0.000;0.000;2023-08-17T06:42:10;2.42;;;1.85;;
77160;SDS011;66135;0.000;0.000;2023-08-17T06:44:35;2.90;;;1.77;;
77160;SDS011;66135;0.000;0.000;2023-08-17T06:47:01;6.40;;;2.42;;
77160;SDS011;66135;0.000;0.000;2023-08-17T06:49:26;2.13;;;1.92;;
77160;SDS011;66135;0.000;0.000;2023-08-17T06:51:52;1.88;;;0.80;;
77160;SDS011;66135;0.000;0.000;2023-08-17T06:54:18;3.90;;;1.95;;
77160;SDS011;66135;0.000;0.000;2023-08-17T06:56:43;2.92;;;1.45;;
77160;SDS011;66135;0.000;0.000;2023-08-17T06:59:08;3.33;;;0.75;;
77160;SDS011;66135;0.000;0.000;2023-08-17T07:01:34;2.65;;;1.90;;
77160;SDS011;66135;0.000;0.000;2023-08-17T07:03:59;2.03;;;1.58;;
77160;SDS011;66135;0.000;0.000;2023-08-17T07:06:25;2.05;;;1.85;;
77160;SDS011;66135;0.000;0.000;2023-08-17T07:08:50;1.92;;;1.83;;
77160;SDS011;66135;0.000;0.000;2023-08-17T07:11:17;4.07;;;2.20;;
77160;SDS011;66135;0.000;0.000;2023-08-17T07:13:43;1.55;;;1.45;;
77160;SDS011;66135;0.000;0.000;2023-08-17T07:16:08;2.55;;;2.35;;
77160;SDS011;66135;0.000;0.000;2023-08-17T07:18:33;2.28;;;1.60;;
77160;SDS011;66135;0.000;0.000;2023-08-17T07:20:59;2.20;;;1.80;;
77160;SDS011;66135;0.000;0.000;2023-08-17T07:23:24;2.15;;;1.75;;
77160;SDS011;66135;0.000;0.000;2023-08-17T07:25:50;2.83;;;2.10;;
77160;SDS011;66135;0.000;0.000;2023-08-17T07:28:15;3.17;;;1.38;;
77160;SDS011;66135;0.000;0.000;2023-08-17T07:30:40;2.47;;;2.20;;
77160;SDS011;66135;0.000;0.000;2023-08-17T07:33:06;3.15;;;1.77;;
77160;SDS011;66135;0.000;0.000;2023-08-17T07:35:31;1.80;;;1.60;;
77160;SDS011;66135;0.000;0.000;2023-08-17T07:37:57;2.47;;;0.70;;
77160;SDS011;66135;0.000;0.000;2023-08-17T07:40:22;2.15;;;1.63;;
77160;SDS011;66135;0.000;0.000;2023-08-17T07:42:48;2.90;;;1.73;;
77160;SDS011;66135;0.000;0.000;2023-08-17T07:45:13;3.70;;;2.03;;
77160;SDS011;66135;0.000;0.000;2023-08-17T07:47:38;2.40;;;2.25;;
77160;SDS011;66135;0.000;0.000;2023-08-17T07:50:04;3.22;;;1.80;;
77160;SDS011;66135;0.000;0.000;2023-08-17T07:52:30;2.70;;;1.65;;
77160;SDS011;66135;0.000;0.000;2023-08-17T07:54:56;1.83;;;1.48;;
77160;SDS011;66135;0.000;0.000;2023-08-17T07:57:21;2.25;;;2.13;;
77160;SDS011;66135;0.000;0.000;2023-08-17T07:59:47;1.55;;;1.45;;
77160;SDS011;66135;0.000;0.000;2023-08-17T08:02:12;2.28;;;2.08;;
77160;SDS011;66135;0.000;0.000;2023-08-17T08:04:38;2.00;;;1.85;;
77160;SDS011;66135;0.000;0.000;2023-08-17T08:07:03;1.80;;;1.55;;
77160;SDS011;66135;0.000;0.000;2023-08-17T08:09:28;2.17;;;2.08;;
77160;SDS011;66135;0.000;0.000;2023-08-17T08:11:54;3.03;;;2.08;;
77160;SDS011;66135;0.000;0.000;2023-08-17T08:14:19;2.35;;;2.15;;
77160;SDS011;66135;0.000;0.000;2023-08-17T08:16:45;2.72;;;2.20;;
77160;SDS011;66135;0.000;0.000;2023-08-17T08:19:10;3.47;;;1.67;;
77160;SDS011;66135;0.000;0.000;2023-08-17T08:21:35;2.45;;;2.20;;
77160;SDS011;66135;0.000;0.000;2023-08-17T08:24:01;3.03;;;2.80;;
77160;SDS011;66135;0.000;0.000;2023-08-17T08:26:26;3.22;;;2.85;;
77160;SDS011;66135;0.000;0.000;2023-08-17T08:28:52;3.35;;;1.20;;
77160;SDS011;66135;0.000;0.000;2023-08-17T08:31:17;3.15;;;2.05;;
77160;SDS011;66135;0.000;0.000;2023-08-17T08:33:43;3.63;;;3.03;;
77160;SDS011;66135;0.000;0.000;2023-08-17T08:36:08;3.47;;;1.80;;
77160;SDS011;66135;0.000;0.000;2023-08-17T08:38:33;5.32;;;3.10;;
77160;SDS011;66135;0.000;0.000;2023-08-17T08:40:59;4.65;;;3.38;;
77160;SDS011;66135;0.000;0.000;2023-08-17T08:43:26;5.18;;;3.20;;
77160;SDS011;66135;0.000;0.000;2023-08-17T08:45:52;4.60;;;3.15;;
77160;SDS011;66135;0.000;0.000;2023-08-17T08:48:19;3.17;;;2.83;;
77160;SDS011;66135;0.000;0.000;2023-08-17T08:50:47;3.55;;;3.25;;
77160;SDS011;66135;0.000;0.000;2023-08-17T08:53:15;4.95;;;3.25;;
77160;SDS011;66135;0.000;0.000;2023-08-17T08:55:49;4.22;;;2.65;;
77160;SDS011;66135;0.000;0.000;2023-08-17T08:58:20;4.40;;;3.15;;
77160;SDS011;66135;0.000;0.000;2023-08-17T09:00:46;4.25;;;3.60;;
77160;SDS011;66135;0.000;0.000;2023-08-17T09:03:12;4.55;;;3.25;;
77160;SDS011;66135;0.000;0.000;2023-08-17T09:05:42;4.32;;;3.33;;
77160;SDS011;66135;0.000;0.000;2023-08-17T09:08:09;4.22;;;2.53;;
77160;SDS011;66135;0.000;0.000;2023-08-17T09:10:37;3.28;;;2.80;;
77160;SDS011;66135;0.000;0.000;2023-08-17T09:13:03;6.20;;;3.38;;
77160;SDS011;66135;0.000;0.000;2023-08-17T09:15:28;3.22;;;1.80;;
77160;SDS011;66135;0.000;0.000;2023-08-17T09:17:54;4.43;;;3.40;;
77160;SDS011;66135;0.000;0.000;2023-08-17T09:20:39;5.22;;;3.53;;
77160;SDS011;66135;0.000;0.000;2023-08-17T09:23:13;4.68;;;3.05;;
77160;SDS011;66135;0.000;0.000;2023-08-17T09:25:41;4.03;;;3.20;;
77160;SDS011;66135;0.000;0.000;2023-08-17T09:28:08;7.70;;;3.35;;
77160;SDS011;66135;0.000;0.000;2023-08-17T09:33:20;3.83;;;3.03;;
77160;SDS011;66135;0.000;0.000;2023-08-17T09:35:46;6.10;;;3.90;;
77160;SDS011;66135;0.000;0.000;2023-08-17T09:38:11;4.82;;;3.20;;
77160;SDS011;66135;0.000;0.000;2023-08-17T09:40:37;6.25;;;3.63;;
77160;SDS011;66135;0.000;0.000;2023-08-17T09:43:03;5.47;;;3.63;;
77160;SDS011;66135;0.000;0.000;2023-08-17T09:45:29;6.18;;;3.80;;
77160;SDS011;66135;0.000;0.000;2023-08-17T09:47:58;5.65;;;3.70;;
77160;SDS011;66135;0.000;0.000;2023-08-17T09:50:24;5.57;;;3.25;;
77160;SDS011;66135;0.000;0.000;2023-08-17T09:52:53;4.68;;;3.25;;
77160;SDS011;66135;0.000;0.000;2023-08-17T09:55:20;4.70;;;3.25;;
77160;SDS011;66135;0.000;0.000;2023-08-17T09:57:48;4.85;;;3.30;;
77160;SDS011;66135;0.000;0.000;2023-08-17T10:00:15;5.22;;;3.60;;
77160;SDS011;66135;0.000;0.000;2023-08-17T10:02:40;4.90;;;3.25;;
77160;SDS011;66135;0.000;0.000;2023-08-17T10:05:07;4.13;;;2.00;;
77160;SDS011;66135;0.000;0.000;2023-08-17T10:07:36;3.80;;;3.50;;
77160;SDS011;66135;0.000;0.000;2023-08-17T10:10:06;4.57;;;3.22;;
77160;SDS011;66135;0.000;0.000;2023-08-17T10:12:33;5.30;;;3.75;;
77160;SDS011;66135;0.000;0.000;2023-08-17T10:15:03;6.53;;;3.72;;
77160;SDS011;66135;0.000;0.000;2023-08-17T10:17:35;4.03;;;3.63;;
77160;SDS011;66135;0.000;0.000;2023-08-17T10:20:08;4.82;;;3.55;;
77160;SDS011;66135;0.000;0.000;2023-08-17T10:25:09;3.92;;;3.45;;
77160;SDS011;66135;0.000;0.000;2023-08-17T10:27:38;4.03;;;2.22;;
77160;SDS011;66135;0.000;0.000;2023-08-17T10:30:05;2.78;;;2.55;;
77160;SDS011;66135;0.000;0.000;2023-08-17T10:32:33;4.32;;;3.05;;
77160;SDS011;66135;0.000;0.000;2023-08-17T10:34:58;3.88;;;3.58;;
77160;SDS011;66135;0.000;0.000;2023-08-17T10:37:24;6.55;;;3.58;;
77160;SDS011;66135;0.000;0.000;2023-08-17T10:39:50;3.47;;;3.13;;
77160;SDS011;66135;0.000;0.000;2023-08-17T10:42:29;4.88;;;3.15;;
77160;SDS011;66135;0.000;0.000;2023-08-17T10:44:58;4.53;;;3.45;;
77160;SDS011;66135;0.000;0.000;2023-08-17T10:47:30;4.63;;;3.17;;
77160;SDS011;66135;0.000;0.000;2023-08-17T10:50:03;3.20;;;3.00;;
77160;SDS011;66135;0.000;0.000;2023-08-17T10:52:32;4.85;;;3.55;;
77160;SDS011;66135;0.000;0.000;2023-08-17T10:55:01;4.25;;;3.25;;
77160;SDS011;66135;0.000;0.000;2023-08-17T10:57:37;3.55;;;2.92;;
77160;SDS011;66135;0.000;0.000;2023-08-17T11:00:21;5.65;;;3.20;;
77160;SDS011;66135;0.000;0.000;2023-08-17T11:02:57;3.42;;;3.03;;
77160;SDS011;66135;0.000;0.000;2023-08-17T11:05:40;3.47;;;2.85;;
77160;SDS011;66135;0.000;0.000;2023-08-17T11:08:28;3.35;;;3.15;;
77160;SDS011;66135;0.000;0.000;2023-08-17T11:11:06;4.65;;;3.38;;
77160;SDS011;66135;0.000;0.000;2023-08-17T11:13:38;3.92;;;3.17;;
77160;SDS011;66135;0.000;0.000;2023-08-17T11:16:05;5.25;;;3.95;;
77160;SDS011;66135;0.000;0.000;2023-08-17T11:18:32;3.92;;;3.42;;
77160;SDS011;66135;0.000;0.000;2023-08-17T11:20:58;3.33;;;2.80;;
77160;SDS011;66135;0.000;0.000;2023-08-17T11:23:24;4.50;;;3.38;;
77160;SDS011;66135;0.000;0.000;2023-08-17T11:25:53;3.03;;;2.70;;
77160;SDS011;66135;0.000;0.000;2023-08-17T11:28:19;3.08;;;2.78;;
77160;SDS011;66135;0.000;0.000;2023-08-17T11:30:55;3.88;;;3.00;;
77160;SDS011;66135;0.000;0.000;2023-08-17T11:33:27;3.10;;;2.78;;
77160;SDS011;66135;0.000;0.000;2023-08-17T11:35:54;3.90;;;3.22;;
77160;SDS011;66135;0.000;0.000;2023-08-17T11:38:23;3.70;;;3.05;;
77160;SDS011;66135;0.000;0.000;2023-08-17T11:40:49;4.72;;;2.83;;
77160;SDS011;66135;0.000;0.000;2023-08-17T11:43:15;4.13;;;3.22;;
77160;SDS011;66135;0.000;0.000;2023-08-17T11:45:41;3.50;;;3.30;;
77160;SDS011;66135;0.000;0.000;2023-08-17T11:48:06;3.92;;;3.35;;
77160;SDS011;66135;0.000;0.000;2023-08-17T11:50:32;3.08;;;2.88;;
77160;SDS011;66135;0.000;0.000;2023-08-17T11:53:00;4.18;;;3.35;;
77160;SDS011;66135;0.000;0.000;2023-08-17T11:55:26;2.80;;;2.42;;
77160;SDS011;66135;0.000;0.000;2023-08-17T11:57:52;3.83;;;3.50;;
77160;SDS011;66135;0.000;0.000;2023-08-17T12:00:19;5.50;;;3.13;;
77160;SDS011;66135;0.000;0.000;2023-08-17T12:02:52;3.75;;;3.45;;
77160;SDS011;66135;0.000;0.000;2023-08-17T12:05:22;3.63;;;3.33;;
77160;SDS011;66135;0.000;0.000;2023-08-17T12:07:49;4.50;;;3.38;;
77160;SDS011;66135;0.000;0.000;2023-08-17T12:10:15;3.40;;;3.00;;
77160;SDS011;66135;0.000;0.000;2023-08-17T12:12:41;3.20;;;2.90;;
77160;SDS011;66135;0.000;0.000;2023-08-17T12:15:06;3.40;;;3.10;;
77160;SDS011;66135;0.000;0.000;2023-08-17T12:17:34;4.85;;;2.95;;
77160;SDS011;66135;0.000;0.000;2023-08-17T12:19:59;3.65;;;2.50;;
77160;SDS011;66135;0.000;0.000;2023-08-17T12:22:25;4.97;;;3.05;;
77160;SDS011;66135;0.000;0.000;2023-08-17T12:24:51;3.00;;;2.80;;
77160;SDS011;66135;0.000;0.000;2023-08-17T12:27:17;2.45;;;1.80;;
77160;SDS011;66135;0.000;0.000;2023-08-17T12:29:46;3.22;;;2.60;;
77160;SDS011;66135;0.000;0.000;2023-08-17T12:32:16;3.75;;;3.20;;
77160;SDS011;66135;0.000;0.000;2023-08-17T12:34:42;2.92;;;2.72;;
77160;SDS011;66135;0.000;0.000;2023-08-17T12:37:09;3.90;;;3.55;;
77160;SDS011;66135;0.000;0.000;2023-08-17T12:39:35;3.75;;;3.35;;
77160;SDS011;66135;0.000;0.000;2023-08-17T12:42:01;3.88;;;3.42;;
77160;SDS011;66135;0.000;0.000;2023-08-17T12:44:26;4.13;;;3.58;;
77160;SDS011;66135;0.000;0.000;2023-08-17T12:46:52;3.40;;;2.55;;
77160;SDS011;66135;0.000;0.000;2023-08-17T12:49:17;3.15;;;2.85;;
77160;SDS011;66135;0.000;0.000;2023-08-17T12:51:42;3.83;;;3.53;;
77160;SDS011;66135;0.000;0.000;2023-08-17T12:54:08;4.13;;;3.65;;
77160;SDS011;66135;0.000;0.000;2023-08-17T12:56:33;4.00;;;3.42;;
77160;SDS011;66135;0.000;0.000;2023-08-17T12:58:58;3.90;;;3.60;;
77160;SDS011;66135;0.000;0.000;2023-08-17T13:01:24;4.55;;;3.38;;
77160;SDS011;66135;0.000;0.000;2023-08-17T13:03:49;5.78;;;3.35;;
77160;SDS011;66135;0.000;0.000;2023-08-17T13:06:14;3.53;;;3.10;;
77160;SDS011;66135;0.000;0.000;2023-08-17T13:08:40;3.90;;;3.60;;
77160;SDS011;66135;0.000;0.000;2023-08-17T13:11:05;4.25;;;3.25;;
77160;SDS011;66135;0.000;0.000;2023-08-17T13:13:31;4.30;;;3.28;;
77160;SDS011;66135;0.000;0.000;2023-08-17T13:15:56;5.63;;;3.03;;
77160;SDS011;66135;0.000;0.000;2023-08-17T13:18:21;3.42;;;3.13;;
77160;SDS011;66135;0.000;0.000;2023-08-17T13:20:47;3.92;;;3.53;;
77160;SDS011;66135;0.000;0.000;2023-08-17T13:23:12;4.07;;;3.67;;
77160;SDS011;66135;0.000;0.000;2023-08-17T13:25:38;3.15;;;2.10;;
77160;SDS011;66135;0.000;0.000;2023-08-17T13:28:03;4.05;;;2.95;;
77160;SDS011;66135;0.000;0.000;2023-08-17T13:30:29;3.83;;;3.28;;
77160;SDS011;66135;0.000;0.000;2023-08-17T13:32:55;4.47;;;3.83;;
77160;SDS011;66135;0.000;0.000;2023-08-17T13:35:21;4.40;;;3.65;;
77160;SDS011;66135;0.000;0.000;2023-08-17T13:37:50;3.88;;;3.50;;
77160;SDS011;66135;0.000;0.000;2023-08-17T13:40:17;3.38;;;3.08;;
77160;SDS011;66135;0.000;0.000;2023-08-17T13:42:43;3.47;;;3.15;;
77160;SDS011;66135;0.000;0.000;2023-08-17T13:45:08;4.20;;;3.90;;
77160;SDS011;66135;0.000;0.000;2023-08-17T13:47:37;4.43;;;4.05;;
77160;SDS011;66135;0.000;0.000;2023-08-17T13:50:02;3.90;;;3.60;;
77160;SDS011;66135;0.000;0.000;2023-08-17T13:52:28;3.90;;;3.60;;
77160;SDS011;66135;0.000;0.000;2023-08-17T13:54:53;3.90;;;3.50;;
77160;SDS011;66135;0.000;0.000;2023-08-17T13:57:20;4.40;;;4.00;;
77160;SDS011;66135;0.000;0.000;2023-08-17T13:59:46;4.07;;;3.78;;
77160;SDS011;66135;0.000;0.000;2023-08-17T14:02:11;4.05;;;3.75;;
77160;SDS011;66135;0.000;0.000;2023-08-17T14:04:36;4.10;;;3.70;;
77160;SDS011;66135;0.000;0.000;2023-08-17T14:07:02;4.53;;;4.10;;
77160;SDS011;66135;0.000;0.000;2023-08-17T14:09:27;4.30;;;3.30;;
77160;SDS011;66135;0.000;0.000;2023-08-17T14:11:53;3.85;;;3.53;;
77160;SDS011;66135;0.000;0.000;2023-08-17T14:14:18;4.43;;;4.13;;
77160;SDS011;66135;0.000;0.000;2023-08-17T14:16:43;3.65;;;2.63;;
77160;SDS011;66135;0.000;0.000;2023-08-17T14:19:09;3.78;;;3.40;;
77160;SDS011;66135;0.000;0.000;2023-08-17T14:21:35;3.80;;;3.50;;
77160;SDS011;66135;0.000;0.000;2023-08-17T14:24:00;3.72;;;3.42;;
77160;SDS011;66135;0.000;0.000;2023-08-17T14:26:25;4.38;;;3.88;;
77160;SDS011;66135;0.000;0.000;2023-08-17T14:28:51;3.05;;;2.42;;
77160;SDS011;66135;0.000;0.000;2023-08-17T14:31:16;4.65;;;3.80;;
77160;SDS011;66135;0.000;0.000;2023-08-17T14:33:43;3.60;;;3.30;;
77160;SDS011;66135;0.000;0.000;2023-08-17T14:36:12;2.47;;;2.22;;
77160;SDS011;66135;0.000;0.000;2023-08-17T14:38:38;3.80;;;3.50;;
77160;SDS011;66135;0.000;0.000;2023-08-17T14:41:03;3.78;;;3.42;;
77160;SDS011;66135;0.000;0.000;2023-08-17T14:43:31;3.45;;;3.15;;
77160;SDS011;66135;0.000;0.000;2023-08-17T14:45:57;4.10;;;3.50;;
77160;SDS011;66135;0.000;0.000;2023-08-17T14:48:23;3.53;;;3.22;;
77160;SDS011;66135;0.000;0.000;2023-08-17T14:50:48;4.30;;;4.00;;
77160;SDS011;66135;0.000;0.000;2023-08-17T14:53:14;4.15;;;3.75;;
77160;SDS011;66135;0.000;0.000;2023-08-17T14:55:39;4.20;;;3.80;;
77160;SDS011;66135;0.000;0.000;2023-08-17T14:58:04;4.35;;;3.88;;
77160;SDS011;66135;0.000;0.000;2023-08-17T15:00:30;3.88;;;3.58;;
77160;SDS011;66135;0.000;0.000;2023-08-17T15:02:56;4.15;;;3.78;;
77160;SDS011;66135;0.000;0.000;2023-08-17T15:05:25;3.30;;;3.00;;
77160;SDS011;66135;0.000;0.000;2023-08-17T15:07:51;3.92;;;3.67;;
77160;SDS011;66135;0.000;0.000;2023-08-17T15:10:16;3.88;;;3.65;;
77160;SDS011;66135;0.000;0.000;2023-08-17T15:12:42;4.20;;;3.65;;
77160;SDS011;66135;0.000;0.000;2023-08-17T15:15:07;4.15;;;3.80;;
77160;SDS011;66135;0.000;0.000;2023-08-17T15:17:33;4.10;;;3.78;;
77160;SDS011;66135;0.000;0.000;2023-08-17T15:19:59;4.40;;;4.00;;
77160;SDS011;66135;0.000;0.000;2023-08-17T15:22:25;4.45;;;3.88;;
77160;SDS011;66135;0.000;0.000;2023-08-17T15:24:51;5.13;;;4.63;;
77160;SDS011;66135;0.000;0.000;2023-08-17T15:27:16;5.15;;;4.60;;
77160;SDS011;66135;0.000;0.000;2023-08-17T15:29:42;5.45;;;4.53;;
77160;SDS011;66135;0.000;0.000;2023-08-17T15:32:07;5.50;;;4.35;;
77160;SDS011;66135;0.000;0.000;2023-08-17T15:34:33;3.90;;;3.40;;
77160;SDS011;66135;0.000;0.000;2023-08-17T15:36:59;5.85;;;5.30;;
77160;SDS011;66135;0.000;0.000;2023-08-17T15:39:24;6.72;;;4.45;;
77160;SDS011;66135;0.000;0.000;2023-08-17T15:41:50;5.15;;;4.32;;
77160;SDS011;66135;0.000;0.000;2023-08-17T15:44:16;6.13;;;5.03;;
77160;SDS011;66135;0.000;0.000;2023-08-17T15:46:41;6.97;;;5.50;;
77160;SDS011;66135;0.000;0.000;2023-08-17T15:49:07;6.35;;;5.68;;
77160;SDS011;66135;0.000;0.000;2023-08-17T15:51:32;6.18;;;5.22;;
77160;SDS011;66135;0.000;0.000;2023-08-17T15:53:57;12.57;;;6.65;;
77160;SDS011;66135;0.000;0.000;2023-08-17T15:56:23;38.83;;;13.48;;
77160;SDS011;66135;0.000;0.000;2023-08-17T15:58:48;64.65;;;20.80;;
77160;SDS011;66135;0.000;0.000;2023-08-17T16:01:14;81.20;;;28.15;;
77160;SDS011;66135;0.000;0.000;2023-08-17T16:03:40;76.60;;;28.30;;
77160;SDS011;66135;0.000;0.000;2023-08-17T16:06:06;71.95;;;29.35;;
77160;SDS011;66135;0.000;0.000;2023-08-17T16:08:31;68.40;;;27.85;;
77160;SDS011;66135;0.000;0.000;2023-08-17T16:10:57;43.08;;;21.15;;
77160;SDS011;66135;0.000;0.000;2023-08-17T16:13:22;43.25;;;20.95;;
77160;SDS011;66135;0.000;0.000;2023-08-17T16:15:48;42.85;;;22.98;;
77160;SDS011;66135;0.000;0.000;2023-08-17T16:18:13;39.17;;;17.67;;
77160;SDS011;66135;0.000;0.000;2023-08-17T16:20:39;35.63;;;20.52;;
77160;SDS011;66135;0.000;0.000;2023-08-17T16:23:04;39.03;;;18.85;;
77160;SDS011;66135;0.000;0.000;2023-08-17T16:25:29;33.70;;;19.00;;
77160;SDS011;66135;0.000;0.000;2023-08-17T16:27:57;36.85;;;19.23;;
77160;SDS011;66135;0.000;0.000;2023-08-17T16:30:23;37.90;;;20.30;;
77160;SDS011;66135;0.000;0.000;2023-08-17T16:32:48;36.92;;;20.23;;
77160;SDS011;66135;0.000;0.000;2023-08-17T16:35:14;38.90;;;18.65;;
77160;SDS011;66135;0.000;0.000;2023-08-17T16:37:40;33.05;;;18.17;;
77160;SDS011;66135;0.000;0.000;2023-08-17T16:40:06;32.15;;;16.73;;
77160;SDS011;66135;0.000;0.000;2023-08-17T16:42:32;27.13;;;16.13;;
77160;SDS011;66135;0.000;0.000;2023-08-17T16:44:57;28.77;;;15.40;;
77160;SDS011;66135;0.000;0.000;2023-08-17T16:47:23;28.20;;;14.15;;
77160;SDS011;66135;0.000;0.000;2023-08-17T16:49:51;27.27;;;15.75;;
77160;SDS011;66135;0.000;0.000;2023-08-17T16:52:17;22.67;;;13.45;;
77160;SDS011;66135;0.000;0.000;2023-08-17T16:54:43;26.58;;;13.93;;
77160;SDS011;66135;0.000;0.000;2023-08-17T16:57:08;20.02;;;11.65;;
77160;SDS011;66135;0.000;0.000;2023-08-17T16:59:33;23.38;;;11.88;;
77160;SDS011;66135;0.000;0.000;2023-08-17T17:01:59;21.30;;;12.98;;
77160;SDS011;66135;0.000;0.000;2023-08-17T17:04:24;19.05;;;10.82;;
77160;SDS011;66135;0.000;0.000;2023-08-17T17:06:50;23.05;;;11.75;;
77160;SDS011;66135;0.000;0.000;2023-08-17T17:09:15;18.25;;;10.77;;
77160;SDS011;66135;0.000;0.000;2023-08-17T17:11:41;15.25;;;10.57;;
77160;SDS011;66135;0.000;0.000;2023-08-17T17:14:07;18.40;;;10.25;;
77160;SDS011;66135;0.000;0.000;2023-08-17T17:16:32;15.35;;;9.60;;
77160;SDS011;66135;0.000;0.000;2023-08-17T17:18:57;15.77;;;9.60;;
77160;SDS011;66135;0.000;0.000;2023-08-17T17:21:23;15.57;;;10.57;;
77160;SDS011;66135;0.000;0.000;2023-08-17T17:23:48;17.80;;;10.27;;
77160;SDS011;66135;0.000;0.000;2023-08-17T17:26:13;16.45;;;9.02;;
77160;SDS011;66135;0.000;0.000;2023-08-17T17:28:39;14.73;;;9.13;;
77160;SDS011;66135;0.000;0.000;2023-08-17T17:31:04;15.02;;;9.02;;
77160;SDS011;66135;0.000;0.000;2023-08-17T17:33:30;14.40;;;8.43;;
77160;SDS011;66135;0.000;0.000;2023-08-17T17:35:56;14.23;;;8.20;;
77160;SDS011;66135;0.000;0.000;2023-08-17T17:38:21;16.77;;;8.57;;
77160;SDS011;66135;0.000;0.000;2023-08-17T17:40:47;12.23;;;8.73;;
77160;SDS011;66135;0.000;0.000;2023-08-17T17:43:13;18.55;;;8.45;;
77160;SDS011;66135;0.000;0.000;2023-08-17T17:45:38;13.80;;;7.85;;
77160;SDS011;66135;0.000;0.000;2023-08-17T17:48:04;10.20;;;8.30;;
77160;SDS011;66135;0.000;0.000;2023-08-17T17:50:30;12.95;;;7.65;;
77160;SDS011;66135;0.000;0.000;2023-08-17T17:52:55;11.50;;;8.30;;
77160;SDS011;66135;0.000;0.000;2023-08-17T17:55:21;11.73;;;7.55;;
77160;SDS011;66135;0.000;0.000;2023-08-17T17:57:46;13.27;;;8.20;;
77160;SDS011;66135;0.000;0.000;2023-08-17T18:00:12;10.35;;;8.02;;
77160;SDS011;66135;0.000;0.000;2023-08-17T18:02:38;12.15;;;7.60;;
77160;SDS011;66135;0.000;0.000;2023-08-17T18:05:04;11.20;;;7.45;;
77160;SDS011;66135;0.000;0.000;2023-08-17T18:07:30;11.32;;;7.35;;
77160;SDS011;66135;0.000;0.000;2023-08-17T18:09:55;7.90;;;6.63;;
77160;SDS011;66135;0.000;0.000;2023-08-17T18:12:21;14.15;;;7.40;;
77160;SDS011;66135;0.000;0.000;2023-08-17T18:14:47;14.98;;;8.15;;
77160;SDS011;66135;0.000;0.000;2023-08-17T18:17:13;10.60;;;7.38;;